Time;durP1;ratioP1;P1;durP2;ratioP2;P2;SDS_P1;SDS_P2;PMS_P1;PMS_P2;Temp;Humidity;BMP_temperature;BMP_pressure;BME280_temperature;BME280_humidity;BME280_pressure;Samples;Min_cycle;Max_cycle;Signal;HPM_P1;HPM_P2
2024/01/09 00:00:51;;;;;;;8.80;3.67;;;;;;;-7.11;100.00;103895.88;5007571;28;20034;-79
2024/01/09 00:03:17;;;;;;;10.30;3.83;;;;;;;-7.14;100.00;103889.06;5016339;28;20041;-79
2024/01/09 00:05:44;;;;;;;6.65;2.70;;;;;;;-7.13;100.00;103888.16;5029115;28;20052;-79
2024/01/09 00:08:10;;;;;;;6.15;2.40;;;;;;;-7.12;100.00;103887.22;5053400;28;20040;-81
2024/01/09 00:10:36;;;;;;;5.22;2.58;;;;;;;-7.08;100.00;103898.34;5076449;28;20045;-84
2024/01/09 00:13:03;;;;;;;6.63;2.92;;;;;;;-7.10;100.00;103893.22;5078324;28;20501;-78
2024/01/09 00:15:31;;;;;;;6.30;2.78;;;;;;;-7.17;100.00;103895.28;5019813;28;20037;-80
2024/01/09 00:17:57;;;;;;;6.40;2.88;;;;;;;-7.17;100.00;103889.25;5044540;28;20096;-79
2024/01/09 00:20:23;;;;;;;6.70;2.80;;;;;;;-7.11;100.00;103893.28;5024816;28;20295;-79
2024/01/09 00:22:49;;;;;;;5.55;2.40;;;;;;;-7.11;100.00;103888.06;5015412;28;20586;-80
2024/01/09 00:25:18;;;;;;;6.32;2.88;;;;;;;-7.08;100.00;103890.53;5029247;28;20409;-77
2024/01/09 00:27:45;;;;;;;5.95;2.80;;;;;;;-7.09;100.00;103886.25;5015306;28;20612;-77
2024/01/09 00:30:11;;;;;;;9.68;3.15;;;;;;;-7.07;100.00;103890.44;5041266;28;20410;-78
2024/01/09 00:32:37;;;;;;;4.07;2.30;;;;;;;-7.05;100.00;103892.97;5036476;28;20094;-80
2024/01/09 00:35:04;;;;;;;;;;;;;;;-7.04;100.00;103877.28;5057608;28;20120;-80
2024/01/09 00:37:30;;;;;;;8.60;2.80;;;;;;;-7.05;100.00;103886.00;5035694;28;19924;-77
2024/01/09 00:39:56;;;;;;;6.28;2.60;;;;;;;-7.05;100.00;103882.56;5010993;28;20765;-79
2024/01/09 00:42:22;;;;;;;4.35;2.50;;;;;;;-7.05;100.00;103888.59;5011843;28;20049;-78
2024/01/09 00:44:48;;;;;;;7.13;2.30;;;;;;;-7.05;100.00;103877.34;5030792;28;20536;-78
2024/01/09 00:47:14;;;;;;;8.07;2.33;;;;;;;-7.07;100.00;103887.84;5023472;28;20044;-77
2024/01/09 00:49:40;;;;;;;5.88;2.53;;;;;;;-7.06;100.00;103875.66;5032769;28;20049;-77
2024/01/09 00:52:06;;;;;;;4.20;1.80;;;;;;;-7.06;100.00;103875.66;5027044;28;20048;-81
2024/01/09 00:54:31;;;;;;;4.22;2.03;;;;;;;-7.07;100.00;103874.81;5036680;28;20408;-87
2024/01/09 00:56:57;;;;;;;6.88;2.20;;;;;;;-7.07;100.00;103868.78;5084109;28;20017;-86
2024/01/09 00:59:23;;;;;;;4.97;1.90;;;;;;;-7.08;100.00;103865.31;5050812;28;20041;-84
2024/01/09 01:01:51;;;;;;;4.70;1.98;;;;;;;-7.09;100.00;103861.03;5073580;28;20052;-80
2024/01/09 01:04:17;;;;;;;5.13;2.40;;;;;;;-7.09;100.00;103866.25;5026469;28;20024;-79
2024/01/09 01:06:44;;;;;;;4.90;2.00;;;;;;;-7.09;100.00;103861.03;5039804;28;20067;-84
2024/01/09 01:09:10;;;;;;;5.50;1.85;;;;;;;-7.10;100.00;103866.34;5040816;28;20032;-88
2024/01/09 01:11:37;;;;;;;3.72;1.70;;;;;;;-7.08;100.00;103862.72;5027870;28;20112;-88
2024/01/09 01:14:02;;;;;;;6.13;1.90;;;;;;;-7.10;100.00;103861.13;5030965;28;20060;-82
2024/01/09 01:16:29;;;;;;;3.42;1.65;;;;;;;-7.09;100.00;103866.25;5041024;28;20050;-79
2024/01/09 01:18:54;;;;;;;4.65;2.17;;;;;;;-7.10;100.00;103864.56;5029551;28;20479;-79
2024/01/09 01:21:21;;;;;;;5.00;2.67;;;;;;;-7.08;100.00;103867.94;4998759;28;20033;-78
2024/01/09 01:23:46;;;;;;;5.13;2.40;;;;;;;-7.06;100.00;103866.09;5009620;28;20134;-78
2024/01/09 01:26:13;;;;;;;7.82;2.60;;;;;;;-7.09;100.00;103863.66;4999137;28;20119;-78
2024/01/09 01:28:38;;;;;;;5.35;2.65;;;;;;;-7.11;100.00;103868.09;5012134;28;20037;-78
2024/01/09 01:31:04;;;;;;;5.03;2.47;;;;;;;-7.09;100.00;103865.41;5010814;28;20033;-78
2024/01/09 01:33:29;;;;;;;9.07;2.33;;;;;;;-7.12;100.00;103871.59;5049785;28;20629;-78
2024/01/09 01:35:55;;;;;;;5.68;2.38;;;;;;;-7.15;100.00;103869.16;5024594;28;20108;-79
2024/01/09 01:38:21;;;;;;;7.95;2.60;;;;;;;-7.19;100.00;103870.22;5011987;28;20052;-79
2024/01/09 01:40:47;;;;;;;5.72;1.90;;;;;;;-7.19;100.00;103863.25;5048096;28;20056;-79
2024/01/09 01:43:12;;;;;;;4.20;2.05;;;;;;;-7.19;100.00;103870.22;5025869;28;20037;-79
2024/01/09 01:45:38;;;;;;;5.35;2.25;;;;;;;-7.19;100.00;103870.22;5016009;28;20033;-79
2024/01/09 01:48:05;;;;;;;4.88;1.92;;;;;;;-7.20;100.00;103873.75;5033711;28;20033;-79
2024/01/09 01:50:32;;;;;;;5.15;2.05;;;;;;;-7.22;100.00;103875.59;5018422;28;20414;-79
2024/01/09 01:53:04;;;;;;;3.45;1.70;;;;;;;-7.26;100.00;103866.25;5016600;28;20036;-80
2024/01/09 01:55:30;;;;;;;4.85;2.08;;;;;;;-7.26;100.00;103876.66;5031852;28;20135;-81
2024/01/09 01:57:58;;;;;;;4.75;2.30;;;;;;;-7.28;100.00;103860.28;5036747;28;20029;-80
2024/01/09 02:00:25;;;;;;;4.93;2.15;;;;;;;-7.28;100.00;103865.47;5028737;28;20087;-79
2024/01/09 02:02:52;;;;;;;4.53;1.85;;;;;;;-7.32;100.00;103863.94;4999263;28;20071;-80
2024/01/09 02:05:18;;;;;;;3.88;1.65;;;;;;;-7.33;100.00;103872.69;5023056;28;20025;-79
2024/01/09 02:07:49;;;;;;;4.30;1.95;;;;;;;-7.33;100.00;103867.47;5035151;28;20037;-79
2024/01/09 02:10:16;;;;;;;4.95;2.45;;;;;;;-7.34;100.00;103866.63;5028618;28;20106;-80
2024/01/09 02:12:42;;;;;;;;;;;;;;;-7.36;100.00;103868.47;5019888;28;20074;-79
2024/01/09 02:15:09;;;;;;;3.63;1.48;;;;;;;-7.39;100.00;103868.59;5034923;28;19935;-79
2024/01/09 02:17:36;;;;;;;5.68;1.80;;;;;;;-7.40;100.00;103861.72;5037324;28;20040;-79
2024/01/09 02:20:02;;;;;;;5.00;1.95;;;;;;;-7.37;100.00;103855.53;5034535;28;20075;-79
2024/01/09 02:22:29;;;;;;;4.75;1.80;;;;;;;-7.41;100.00;103865.25;5048187;28;20038;-79
2024/01/09 02:24:55;;;;;;;5.07;2.25;;;;;;;-7.41;100.00;103865.25;5022097;28;20211;-79
2024/01/09 02:27:30;;;;;;;3.28;1.60;;;;;;;-7.45;100.00;103853.28;5032006;28;20041;-80
2024/01/09 02:29:56;;;;;;;5.28;2.00;;;;;;;-7.46;100.00;103860.25;5032966;28;20120;-79
2024/01/09 02:32:22;;;;;;;6.07;2.30;;;;;;;-7.50;100.00;103861.34;5011532;28;20100;-79
2024/01/09 02:34:49;;;;;;;4.43;2.08;;;;;;;-7.49;100.00;103860.41;5052235;28;20120;-79
2024/01/09 02:37:15;;;;;;;5.35;2.13;;;;;;;-7.46;100.00;103856.81;5008882;28;20049;-80
2024/01/09 02:39:41;;;;;;;4.85;1.75;;;;;;;-7.50;100.00;103861.34;5028927;28;20438;-79
2024/01/09 02:42:06;;;;;;;4.35;2.17;;;;;;;-7.49;100.00;103857.81;5037048;28;20862;-80
2024/01/09 02:44:32;;;;;;;5.97;1.90;;;;;;;-7.50;100.00;103850.09;5005168;28;20033;-79
2024/01/09 02:46:57;;;;;;;9.35;2.22;;;;;;;-7.51;100.00;103853.59;5038952;28;20024;-78
2024/01/09 02:49:23;;;;;;;10.65;2.47;;;;;;;-7.51;100.00;103853.59;4998305;28;20178;-79
2024/01/09 02:51:49;;;;;;;4.13;1.83;;;;;;;-7.51;100.00;103864.88;5027419;28;20032;-79
2024/01/09 02:54:15;;;;;;;3.42;1.73;;;;;;;-7.53;100.00;103853.66;5036108;28;20037;-79
2024/01/09 02:56:41;;;;;;;4.28;2.17;;;;;;;-7.56;100.00;103856.44;5047840;28;20028;-79
2024/01/09 02:59:06;;;;;;;5.03;2.60;;;;;;;-7.58;100.00;103867.84;5046485;28;20033;-78
2024/01/09 03:01:32;;;;;;;5.75;2.45;;;;;;;-7.59;100.00;103868.72;5027398;28;20036;-79
2024/01/09 03:03:58;;;;;;;4.57;1.80;;;;;;;-7.63;100.00;103868.06;5035424;28;20108;-80
2024/01/09 03:06:23;;;;;;;5.05;2.25;;;;;;;-7.66;100.00;103862.13;5016744;28;20048;-79
2024/01/09 03:08:49;;;;;;;5.38;1.90;;;;;;;-7.68;100.00;103862.22;5026519;28;20120;-79
2024/01/09 03:11:15;;;;;;;4.57;1.98;;;;;;;-7.71;100.00;103859.78;5032485;28;20032;-79
2024/01/09 03:13:41;;;;;;;5.47;1.88;;;;;;;-7.73;100.00;103859.81;5019927;28;20028;-79
2024/01/09 03:16:14;;;;;;;4.38;2.08;;;;;;;-7.76;100.00;103861.75;5026235;28;20036;-79
2024/01/09 03:18:40;;;;;;;3.70;1.95;;;;;;;-7.77;100.00;103857.47;5032351;28;20047;-79
2024/01/09 03:21:06;;;;;;;4.47;2.08;;;;;;;-7.81;100.00;103846.34;5001660;28;20605;-78
2024/01/09 03:23:32;;;;;;;3.65;1.90;;;;;;;-7.81;100.00;103855.91;5007832;28;20041;-77
2024/01/09 03:25:58;;;;;;;4.53;1.92;;;;;;;-7.85;100.00;103859.59;5036591;28;20082;-78
2024/01/09 03:28:25;;;;;;;4.40;2.13;;;;;;;-7.87;100.00;103851.00;5037439;28;20041;-78
2024/01/09 03:30:50;;;;;;;4.38;2.20;;;;;;;-7.90;100.00;103857.19;5030541;28;20490;-79
2024/01/09 03:33:16;;;;;;;4.43;2.00;;;;;;;-7.94;100.00;103855.66;5012131;28;20033;-79
2024/01/09 03:35:42;;;;;;;4.00;1.70;;;;;;;-8.02;100.00;103858.63;5007949;28;20405;-78
2024/01/09 03:38:08;;;;;;;4.35;1.75;;;;;;;-8.06;100.00;103861.41;5041033;28;20402;-77
2024/01/09 03:40:36;;;;;;;4.65;1.98;;;;;;;-8.10;100.00;103859.91;5046682;28;20034;-79
2024/01/09 03:43:02;;;;;;;5.43;2.05;;;;;;;-8.12;100.00;103857.38;5033968;28;20037;-79
2024/01/09 03:45:31;;;;;;;;;;;;;;;-8.13;100.00;103855.66;5051190;28;20708;-78
2024/01/09 03:47:57;;;;;;;4.85;1.80;;;;;;;-8.12;100.00;103854.78;5024235;28;20313;-79
2024/01/09 03:50:22;;;;;;;5.72;1.90;;;;;;;-8.12;100.00;103840.94;5056480;28;20505;-79
2024/01/09 03:52:49;;;;;;;4.93;2.40;;;;;;;-8.07;100.00;103844.97;5029210;28;20036;-77
2024/01/09 03:55:15;;;;;;;4.47;1.67;;;;;;;-8.08;100.00;103853.69;5034749;28;20037;-78
2024/01/09 03:57:42;;;;;;;3.25;1.92;;;;;;;-8.07;100.00;103844.97;5029523;28;20045;-77
2024/01/09 04:00:08;;;;;;;5.07;2.00;;;;;;;-8.06;100.00;103841.47;5010373;28;20529;-77
2024/01/09 04:02:34;;;;;;;5.05;2.13;;;;;;;-8.07;100.00;103839.78;5025934;28;20115;-77
2024/01/09 04:05:01;;;;;;;3.60;1.65;;;;;;;-8.04;100.00;103842.25;5022227;28;20119;-79
2024/01/09 04:07:26;;;;;;;4.22;2.20;;;;;;;-8.02;100.00;103847.38;5029667;28;20041;-79
2024/01/09 04:09:52;;;;;;;5.80;2.28;;;;;;;-8.03;100.00;103843.94;5031399;28;20036;-78
2024/01/09 04:12:18;;;;;;;5.60;1.90;;;;;;;-8.03;100.00;103846.53;5029516;28;20075;-77
2024/01/09 04:14:44;;;;;;;5.88;2.10;;;;;;;-8.03;100.00;103849.13;5054246;28;20127;-77
2024/01/09 04:17:09;;;;;;;8.63;2.45;;;;;;;-8.00;100.00;103846.38;5002262;28;20036;-78
2024/01/09 04:19:39;;;;;;;6.88;2.55;;;;;;;-7.98;100.00;103854.97;5032873;28;20033;-78
2024/01/09 04:22:06;;;;;;;3.90;2.28;;;;;;;-7.98;100.00;103843.72;5018746;28;20075;-79
2024/01/09 04:24:33;;;;;;;6.85;2.30;;;;;;;-7.97;100.00;103841.03;5022770;28;20032;-79
2024/01/09 04:26:58;;;;;;;6.28;2.72;;;;;;;-7.95;100.00;103853.13;5003942;28;20040;-78
2024/01/09 04:29:25;;;;;;;6.05;2.55;;;;;;;-7.94;100.00;103836.59;5013504;28;20837;-78
2024/01/09 04:31:51;;;;;;;6.38;2.60;;;;;;;-7.95;100.00;103858.34;5032312;28;20040;-77
2024/01/09 04:34:17;;;;;;;4.78;2.08;;;;;;;-7.96;100.00;103847.09;5035178;28;20071;-76
2024/01/09 04:36:43;;;;;;;3.67;2.00;;;;;;;-7.96;100.00;103852.28;5015439;28;20025;-79
2024/01/09 04:39:08;;;;;;;8.85;2.50;;;;;;;-7.97;100.00;103846.25;5031816;28;20509;-78
2024/01/09 04:41:34;;;;;;;4.43;2.22;;;;;;;-7.97;100.00;103842.81;5007277;28;20102;-78
2024/01/09 04:44:00;;;;;;;4.38;2.25;;;;;;;-7.97;100.00;103845.41;5017831;28;20044;-78
2024/01/09 04:46:26;;;;;;;5.07;2.35;;;;;;;-7.99;100.00;103842.88;5026462;28;20086;-78
2024/01/09 04:48:52;;;;;;;4.50;2.05;;;;;;;-8.03;100.00;103838.72;5029835;28;20054;-79
2024/01/09 04:51:17;;;;;;;4.65;2.03;;;;;;;-8.03;100.00;103840.47;5034705;28;20032;-77
2024/01/09 04:53:43;;;;;;;4.45;2.08;;;;;;;-8.05;100.00;103844.94;5032159;28;20039;-78
2024/01/09 04:56:09;;;;;;;4.22;2.13;;;;;;;-8.07;100.00;103844.13;5048342;28;20037;-78
2024/01/09 04:58:34;;;;;;;6.32;2.40;;;;;;;-8.08;100.00;103847.66;5024990;28;20127;-78
2024/01/09 05:01:00;;;;;;;4.43;1.98;;;;;;;-8.09;100.00;103845.97;5006752;28;20056;-79
2024/01/09 05:03:26;;;;;;;4.88;2.33;;;;;;;-8.11;100.00;103835.66;5018098;28;20045;-78
2024/01/09 05:05:52;;;;;;;5.40;2.50;;;;;;;-8.11;100.00;103842.59;5016541;28;20074;-78
2024/01/09 05:08:17;;;;;;;6.47;2.17;;;;;;;-8.14;100.00;103846.19;5030453;28;20151;-78
2024/01/09 05:10:44;;;;;;;4.53;2.30;;;;;;;-8.16;100.00;103845.41;5049569;28;20029;-78
2024/01/09 05:13:09;;;;;;;6.13;2.38;;;;;;;-8.18;100.00;103839.44;5052353;28;20037;-78
2024/01/09 05:15:35;;;;;;;5.05;2.38;;;;;;;-8.17;100.00;103843.72;5005000;28;20051;-78
2024/01/09 05:18:02;;;;;;;4.90;2.53;;;;;;;-8.15;100.00;103839.28;5049090;28;20040;-78
2024/01/09 05:20:27;;;;;;;4.03;2.22;;;;;;;-8.14;100.00;103840.97;5026733;28;20599;-79
2024/01/09 05:22:55;;;;;;;8.75;3.15;;;;;;;-8.14;100.00;103843.56;5021540;28;20036;-78
2024/01/09 05:25:20;;;;;;;3.78;2.25;;;;;;;-8.14;100.00;103837.53;5010411;28;20042;-79
2024/01/09 05:27:46;;;;;;;5.18;2.15;;;;;;;-8.15;100.00;103841.88;5050647;28;20029;-78
2024/01/09 05:30:12;;;;;;;6.15;2.60;;;;;;;-8.16;100.00;103835.00;5014923;28;20055;-78
2024/01/09 05:32:38;;;;;;;8.18;2.97;;;;;;;-8.18;100.00;103834.25;5013541;28;20040;-77
2024/01/09 05:35:05;;;;;;;5.20;2.15;;;;;;;-8.18;100.00;103831.66;5034078;28;20037;-77
2024/01/09 05:37:30;;;;;;;4.45;2.33;;;;;;;-8.19;100.00;103837.75;5047213;28;20033;-78
2024/01/09 05:39:56;;;;;;;7.88;2.70;;;;;;;-8.19;100.00;103835.16;5034763;28;20048;-78
2024/01/09 05:42:22;;;;;;;6.35;2.75;;;;;;;-8.17;100.00;103838.53;5014173;28;20588;-78
2024/01/09 05:44:48;;;;;;;4.88;2.42;;;;;;;-8.17;100.00;103840.28;5024561;28;20086;-78
2024/01/09 05:47:14;;;;;;;7.55;3.22;;;;;;;-8.22;100.00;103835.28;5033470;28;20095;-78
2024/01/09 05:49:39;;;;;;;7.07;3.20;;;;;;;-8.22;100.00;103831.84;5022220;28;20520;-77
2024/01/09 05:52:05;;;;;;;6.50;3.40;;;;;;;-8.20;100.00;103836.06;5008994;28;20029;-78
2024/01/09 05:54:31;;;;;;;5.35;2.50;;;;;;;-8.20;100.00;103833.44;5033222;28;20454;-78
2024/01/09 05:56:57;;;;;;;4.88;2.50;;;;;;;-8.27;100.00;103832.88;5021378;28;20797;-77
2024/01/09 05:59:22;;;;;;;5.25;2.40;;;;;;;-8.30;100.00;103842.59;5028262;28;20115;-78
2024/01/09 06:01:48;;;;;;;7.03;2.80;;;;;;;-8.30;100.00;103842.59;5032117;28;20029;-77
2024/01/09 06:04:15;;;;;;;7.07;2.97;;;;;;;-8.33;100.00;103841.00;5018360;28;20444;-77
2024/01/09 06:06:40;;;;;;;5.20;3.05;;;;;;;-8.34;100.00;103838.44;5013110;28;20044;-77
2024/01/09 06:09:06;;;;;;;5.97;2.75;;;;;;;-8.35;100.00;103839.41;5011516;28;20040;-78
2024/01/09 06:11:32;;;;;;;5.00;2.65;;;;;;;-8.43;100.00;103847.56;5010121;28;20041;-78
2024/01/09 06:13:57;;;;;;;7.10;3.45;;;;;;;-8.42;100.00;103840.59;5022793;22;20046;-73
2024/01/09 06:16:23;;;;;;;6.05;2.70;;;;;;;-8.40;100.00;103847.44;5012603;28;20046;-72
2024/01/09 06:18:49;;;;;;;5.68;3.10;;;;;;;-8.39;100.00;103853.47;4999529;28;20046;-71
2024/01/09 06:21:14;;;;;;;5.80;3.15;;;;;;;-8.39;100.00;103848.28;4994214;28;20048;-72
2024/01/09 06:23:40;;;;;;;6.80;3.17;;;;;;;-8.38;100.00;103856.00;5000813;28;20136;-73
2024/01/09 06:26:06;;;;;;;5.90;3.03;;;;;;;-8.36;100.00;103855.91;4996991;28;20085;-72
2024/01/09 06:28:33;;;;;;;7.07;2.97;;;;;;;-8.35;100.00;103860.19;4997362;28;20042;-72
2024/01/09 06:30:59;;;;;;;6.88;2.97;;;;;;;-8.33;100.00;103858.31;4993561;28;20797;-72
2024/01/09 06:33:26;;;;;;;9.65;2.90;;;;;;;-8.31;100.00;103851.31;5001224;28;20281;-72
2024/01/09 06:35:52;;;;;;;5.15;2.60;;;;;;;-8.29;100.00;103859.88;4968245;28;20073;-73
2024/01/09 06:38:18;;;;;;;5.10;3.08;;;;;;;-8.25;100.00;103864.88;4980385;28;20132;-73
2024/01/09 06:40:44;;;;;;;7.63;3.28;;;;;;;-8.25;100.00;103859.69;4996523;28;20030;-72
2024/01/09 06:43:10;;;;;;;8.88;2.90;;;;;;;-8.19;100.00;103860.31;4992511;28;20515;-73
2024/01/09 06:45:35;;;;;;;7.55;3.38;;;;;;;-8.14;100.00;103856.56;4998553;28;20046;-72
2024/01/09 06:48:02;;;;;;;6.30;2.80;;;;;;;-8.14;100.00;103861.78;4992513;28;20449;-72
2024/01/09 06:50:27;;;;;;;6.97;2.70;;;;;;;-8.12;100.00;103862.56;4994439;28;20279;-72
2024/01/09 06:52:53;;;;;;;7.60;3.22;;;;;;;-8.09;100.00;103858.97;4991695;28;20124;-72
2024/01/09 06:55:19;;;;;;;7.10;3.28;;;;;;;-8.05;100.00;103861.38;5015995;28;20565;-73
2024/01/09 06:57:45;;;;;;;6.45;2.90;;;;;;;-8.05;100.00;103863.97;4993032;28;20053;-71
2024/01/09 07:00:12;;;;;;;6.70;3.00;;;;;;;-8.07;100.00;103863.19;4980881;28;20038;-72
2024/01/09 07:02:37;;;;;;;5.45;3.25;;;;;;;-8.07;100.00;103860.56;4979759;28;20046;-72
2024/01/09 07:05:06;;;;;;;5.80;2.88;;;;;;;-8.05;100.00;103861.38;5003189;28;20505;-72
2024/01/09 07:07:32;;;;;;;6.82;3.05;;;;;;;-8.04;100.00;103859.63;5012014;28;20087;-72
2024/01/09 07:09:58;;;;;;;5.45;3.03;;;;;;;-8.05;100.00;103861.38;4976014;28;20030;-72
2024/01/09 07:12:24;;;;;;;5.28;2.60;;;;;;;-8.05;100.00;103871.78;4995891;28;20045;-72
2024/01/09 07:14:49;;;;;;;7.63;3.28;;;;;;;-8.07;100.00;103865.78;5001584;28;20038;-72
2024/01/09 07:17:15;;;;;;;4.95;2.50;;;;;;;-8.09;100.00;103870.22;4997655;28;20038;-72
2024/01/09 07:19:41;;;;;;;5.57;3.10;;;;;;;-8.08;100.00;103869.31;4979149;28;20066;-71
2024/01/09 07:22:08;;;;;;;6.03;2.65;;;;;;;-8.08;100.00;103877.09;4983097;28;20073;-72
2024/01/09 07:24:33;;;;;;;;;;;;;;;-8.11;100.00;103874.66;5014323;28;20337;-73
2024/01/09 07:26:59;;;;;;;5.07;2.40;;;;;;;-8.11;100.00;103879.84;5001443;28;20508;-72
2024/01/09 07:29:25;;;;;;;6.78;2.97;;;;;;;-8.12;100.00;103883.38;4999110;28;20037;-73
2024/01/09 07:31:50;;;;;;;5.88;3.38;;;;;;;-8.14;100.00;103890.38;4999635;28;20046;-73
2024/01/09 07:34:16;;;;;;;6.05;3.17;;;;;;;-8.14;100.00;103886.94;5012463;28;20041;-72
2024/01/09 07:36:42;;;;;;;6.55;3.35;;;;;;;-8.14;100.00;103881.75;5004317;28;20563;-72
2024/01/09 07:39:09;;;;;;;6.25;3.05;;;;;;;-8.17;100.00;103885.34;5001512;28;20659;-73
2024/01/09 07:41:35;;;;;;;9.63;3.38;;;;;;;-8.17;100.00;103885.34;5009630;28;20046;-72
2024/01/09 07:44:02;;;;;;;6.13;3.20;;;;;;;-8.15;100.00;103883.50;4994505;28;20038;-73
2024/01/09 07:46:28;;;;;;;6.53;2.75;;;;;;;-8.14;100.00;103884.34;5019104;28;20092;-72
2024/01/09 07:48:54;;;;;;;8.80;3.72;;;;;;;-8.12;100.00;103883.38;5001434;28;20108;-72
2024/01/09 07:51:20;;;;;;;6.07;3.15;;;;;;;-8.10;100.00;103885.91;4985358;28;20484;-72
2024/01/09 07:53:45;;;;;;;9.00;3.60;;;;;;;-8.07;100.00;103885.75;4999190;28;20135;-72
2024/01/09 07:56:18;;;;;;;6.75;3.63;;;;;;;-8.06;100.00;103877.91;5014369;28;20038;-72
2024/01/09 07:58:45;;;;;;;5.03;3.13;;;;;;;-8.02;100.00;103883.78;4999482;28;20492;-72
2024/01/09 08:01:12;;;;;;;8.20;3.63;;;;;;;-8.00;100.00;103887.97;4996266;28;20080;-72
2024/01/09 08:03:40;;;;;;;6.68;3.38;;;;;;;-7.96;100.00;103886.09;4992975;28;20047;-72
2024/01/09 08:06:12;;;;;;;8.50;3.80;;;;;;;-7.95;100.00;103886.94;5003035;28;20065;-72
2024/01/09 08:08:38;;;;;;;5.50;3.05;;;;;;;-7.91;100.00;103891.09;4993536;28;20046;-72
2024/01/09 08:11:05;;;;;;;6.60;2.80;;;;;;;-7.87;100.00;103890.03;5000722;28;20041;-72
2024/01/09 08:13:31;;;;;;;6.72;3.50;;;;;;;-7.80;100.00;103894.88;5018857;28;20064;-72
2024/01/09 08:15:57;;;;;;;6.15;3.30;;;;;;;-7.75;100.00;103887.69;5015205;28;20872;-71
2024/01/09 08:18:23;;;;;;;7.20;3.35;;;;;;;-7.69;100.00;103889.16;4996594;28;20095;-71
2024/01/09 08:20:48;;;;;;;8.85;4.05;;;;;;;-7.67;100.00;103889.94;5005575;28;20042;-71
2024/01/09 08:23:15;;;;;;;7.40;3.55;;;;;;;-7.61;100.00;103883.59;4987085;28;20037;-71
2024/01/09 08:25:42;;;;;;;8.18;3.92;;;;;;;-7.53;100.00;103887.50;4983337;28;20411;-71
2024/01/09 08:28:08;;;;;;;10.38;4.40;;;;;;;-7.43;100.00;103898.34;4999010;28;20076;-72
2024/01/09 08:30:36;;;;;;;9.07;3.80;;;;;;;-7.36;100.00;103891.06;4999814;28;20046;-72
2024/01/09 08:33:02;;;;;;;8.45;4.05;;;;;;;-7.33;100.00;103893.50;5003305;28;20037;-72
2024/01/09 08:35:28;;;;;;;8.43;4.05;;;;;;;-7.29;100.00;103889.84;5000544;28;20052;-71
2024/01/09 08:37:53;;;;;;;7.50;3.72;;;;;;;-7.25;100.00;103896.56;5000626;28;20042;-71
2024/01/09 08:40:19;;;;;;;11.18;3.70;;;;;;;-7.20;100.00;103894.59;4997438;28;20504;-72
2024/01/09 08:42:45;;;;;;;11.90;4.38;;;;;;;-7.17;100.00;103897.06;4985436;28;20038;-71
2024/01/09 08:45:12;;;;;;;8.02;3.83;;;;;;;-7.11;100.00;103898.50;4996986;28;20449;-71
2024/01/09 08:47:41;;;;;;;8.55;4.35;;;;;;;-7.06;100.00;103896.50;4991531;28;20623;-71
2024/01/09 08:50:08;;;;;;;6.88;3.58;;;;;;;-7.02;100.00;103901.50;5004144;28;20732;-71
2024/01/09 08:52:35;;;;;;;9.00;4.00;;;;;;;-6.94;100.00;103898.50;5004139;28;20036;-72
2024/01/09 08:55:03;;;;;;;9.30;4.60;;;;;;;-6.88;100.00;103892.97;5000968;28;20639;-72
2024/01/09 08:57:29;;;;;;;8.27;4.28;;;;;;;-6.81;100.00;103890.91;4978321;28;20037;-72
2024/01/09 08:59:56;;;;;;;8.55;4.90;;;;;;;-6.75;100.00;103890.59;4998991;28;20214;-71
2024/01/09 09:02:22;;;;;;;8.23;4.43;;;;;;;-6.67;100.00;103891.03;5001430;28;20363;-71
2024/01/09 09:04:48;;;;;;;8.80;4.57;;;;;;;-6.62;100.00;103889.88;5003231;28;20415;-72
2024/01/09 09:07:15;;;;;;;13.00;4.53;;;;;;;-6.56;100.00;103891.31;5010813;28;20119;-71
2024/01/09 09:09:41;;;;;;;8.82;4.00;;;;;;;-6.49;100.00;103892.69;5001403;28;20548;-71
2024/01/09 09:12:07;;;;;;;7.57;4.53;;;;;;;-6.41;100.00;103895.72;4993934;28;20034;-71
2024/01/09 09:14:32;;;;;;;9.38;4.00;;;;;;;-6.34;100.00;103897.09;4990220;28;20418;-71
2024/01/09 09:16:58;;;;;;;10.43;4.53;;;;;;;-6.25;100.00;103890.53;5000884;28;20038;-71
2024/01/09 09:19:24;;;;;;;6.82;3.67;;;;;;;-6.17;100.00;103887.50;4997334;28;20076;-71
2024/01/09 09:21:50;;;;;;;11.43;4.70;;;;;;;-6.10;100.00;103888.84;4995785;28;20554;-71
2024/01/09 09:24:16;;;;;;;10.30;4.40;;;;;;;-6.03;100.00;103894.59;4993343;28;20034;-71
2024/01/09 09:26:42;;;;;;;8.70;4.57;;;;;;;-5.95;100.00;103892.44;5000485;28;20038;-73
2024/01/09 09:29:09;;;;;;;12.00;4.80;;;;;;;-5.92;100.00;103893.09;5003317;28;20038;-71
2024/01/09 09:31:35;;;;;;;8.93;4.38;;;;;;;-5.88;100.00;103898.97;4984238;28;20072;-72
2024/01/09 09:34:00;;;;;;;9.18;4.70;;;;;;;-5.84;100.00;103893.47;5013974;28;20503;-72
2024/01/09 09:36:26;;;;;;;7.47;4.22;;;;;;;-5.78;100.00;103893.13;5003783;28;20061;-72
2024/01/09 09:38:53;;;;;;;9.88;4.72;;;;;;;-5.69;100.00;103891.78;5008931;28;20492;-72
2024/01/09 09:41:23;;;;;;;8.98;4.25;;;;;;;-5.60;100.00;103895.66;4987535;28;20121;-72
2024/01/09 09:43:58;;;;;;;10.23;4.93;;;;;;;-5.52;100.00;103889.06;4991258;28;20155;-72
2024/01/09 09:46:26;;;;;;;10.60;4.47;;;;;;;-5.50;100.00;103888.97;4998664;28;20843;-71
2024/01/09 09:48:53;;;;;;;7.35;4.00;;;;;;;-5.42;100.00;103891.97;4997103;28;20042;-72
2024/01/09 09:51:21;;;;;;;9.55;4.18;;;;;;;-5.36;100.00;103890.78;4960973;28;20037;-71
2024/01/09 09:53:47;;;;;;;7.40;3.55;;;;;;;-5.32;100.00;103887.09;5009168;28;20580;-72
2024/01/09 09:56:13;;;;;;;8.70;4.63;;;;;;;-5.23;100.00;103876.09;5009384;28;20034;-72
2024/01/09 09:58:42;;;;;;;7.30;3.72;;;;;;;-5.14;100.00;103879.97;5008101;28;20042;-72
2024/01/09 10:01:11;;;;;;;8.52;4.47;;;;;;;-5.06;100.00;103882.97;4981717;28;20026;-72
2024/01/09 10:03:48;;;;;;;8.02;3.78;;;;;;;-5.00;100.00;103883.44;4983965;28;20104;-72
2024/01/09 10:06:17;;;;;;;9.85;4.30;;;;;;;-4.96;100.00;103886.69;4996319;28;20395;-72
2024/01/09 10:08:46;;;;;;;8.02;3.88;;;;;;;-4.93;100.00;103883.09;5013839;28;20089;-72
2024/01/09 10:11:11;;;;;;;7.25;3.65;;;;;;;-4.92;100.00;103880.38;4978411;28;20022;-71
2024/01/09 10:13:39;;;;;;;6.25;3.67;;;;;;;-4.87;100.00;103883.56;4973111;28;20048;-72
2024/01/09 10:16:05;;;;;;;8.63;4.50;;;;;;;-4.83;100.00;103877.19;4997979;28;20895;-72
2024/01/09 10:18:32;;;;;;;8.52;3.47;;;;;;;-4.81;100.00;103879.72;5004107;28;20099;-73
2024/01/09 10:20:59;;;;;;;8.98;4.13;;;;;;;-4.79;100.00;103876.09;5002706;28;20026;-72
2024/01/09 10:23:29;;;;;;;5.55;3.25;;;;;;;-4.74;100.00;103879.28;4979557;28;20045;-72
2024/01/09 10:25:58;;;;;;;6.40;3.50;;;;;;;-4.68;100.00;103876.28;4978205;28;20523;-72
2024/01/09 10:28:24;;;;;;;5.95;3.08;;;;;;;-4.61;100.00;103868.91;4998638;28;20124;-72
2024/01/09 10:30:52;;;;;;;6.07;3.05;;;;;;;-4.58;100.00;103878.34;4997400;28;20464;-71
2024/01/09 10:33:17;;;;;;;5.60;2.97;;;;;;;-4.55;100.00;103863.28;4977557;28;20046;-73
2024/01/09 10:35:43;;;;;;;6.72;3.67;;;;;;;-4.46;100.00;103875.84;4977976;28;20514;-71
2024/01/09 10:38:10;;;;;;;8.98;3.58;;;;;;;-4.41;100.00;103876.38;4994357;28;20061;-72
2024/01/09 10:40:35;;;;;;;6.57;3.42;;;;;;;-4.34;100.00;103879.44;4997573;28;20037;-72
2024/01/09 10:43:01;;;;;;;6.32;3.80;;;;;;;-4.28;100.00;103870.38;4998486;28;20093;-73
2024/01/09 10:45:27;;;;;;;6.07;3.35;;;;;;;-4.23;100.00;103869.16;4996396;28;20137;-72
2024/01/09 10:47:53;;;;;;;;;;;;;;;-4.16;100.00;103880.09;4982377;28;20049;-72
2024/01/09 10:50:23;;;;;;;6.38;3.20;;;;;;;-4.13;100.00;103879.91;4998126;28;19917;-72
2024/01/09 10:52:50;;;;;;;6.65;3.15;;;;;;;-4.05;100.00;103872.41;4998521;28;20091;-72
2024/01/09 10:55:19;;;;;;;5.72;3.03;;;;;;;-4.02;100.00;103869.59;5003140;28;20033;-72
2024/01/09 10:57:47;;;;;;;4.43;2.70;;;;;;;-3.96;100.00;103871.81;4991135;28;20500;-70
2024/01/09 11:00:14;;;;;;;4.90;2.17;;;;;;;-3.89;100.00;103859.19;4995685;28;20049;-71
2024/01/09 11:02:40;;;;;;;4.90;2.47;;;;;;;-3.83;100.00;103861.41;5005608;28;20048;-71
2024/01/09 11:05:07;;;;;;;5.63;3.17;;;;;;;-3.77;100.00;103865.41;5014171;28;20038;-72
2024/01/09 11:07:34;;;;;;;8.05;2.67;;;;;;;-3.69;100.00;103858.75;4983157;28;20125;-72
2024/01/09 11:10:00;;;;;;;6.43;3.38;;;;;;;-3.63;100.00;103852.28;4976360;28;20041;-72
2024/01/09 11:12:39;;;;;;;5.15;2.90;;;;;;;-3.55;100.00;103854.38;4985065;28;20625;-71